Ursvikens väder

stationens status  
Klimatstatistik

Klimatstatistik


Report for 2010 Aug
                   Monthly Climatological Summary for aug 2010

Name: Ursviken   City:    State: 
Elevation: 35 m  Lat: N 64° 42' 41"   Lon: E 021° 10' 44"

                  Temperature (°C), Rain (mm), Wind Speed (m/s)

                                      Heat  Cool        Avg
    Mean                              Deg   Deg         Wind                 Dom
Day Temp  High   Time   Low    Time   Days  Days  Rain  Speed High   Time    Dir
----------------------------------------------------------------------------------
 1  19,5  25,9   00:00  13,1   00:00   0,0   0,0   0,0   0,6   5,4   00:00   ---
 2  20,2  25,4   00:00  15,0   00:00   0,0   0,0   0,0   0,5   4,1   00:00   ---
 3  19,1  25,9   00:00  12,3   00:00  18,1   0,0   0,0   0,4   3,1   00:00     V
 4  14,2  17,4   00:00  11,0   00:00   4,1   0,0  42,3   1,2   6,1   00:00   ---
 5  20,2  27,9   00:00  12,5   00:00   0,0   0,0  15,3   0,9   6,5   00:00   ---
 6  18,5  25,7   00:00  11,4   00:00  16,0   0,0   0,0   0,6   5,4   00:00    NV
 7  17,8  23,4   00:00  12,1   00:00   0,5   0,0   0,0   0,4   3,4   00:00   ---
 8  17,6  20,4   00:00  14,8   00:00   0,7   0,0  27,6   0,5   5,1   00:00   ---
 9  16,9  18,9   00:00  14,9   00:00   1,4   0,0  10,8   0,4   3,7   00:00   ---
10  14,4  16,6   00:00  12,2   00:00   3,9   0,0  27,6   0,5   3,1   00:00   ---
11  17,8  25,4   00:00  10,1   00:00   0,5   0,0   0,0   0,3   4,1   00:00   ---
12  18,5  24,4   00:00  12,7   00:00   0,0   0,3   0,0   0,4   3,7   00:00   ---
13  21,3  28,9   00:00  13,6   00:00   0,0   3,0   0,0   0,3   3,1   00:00   ---
14  21,3  29,2   00:00  13,4   00:00   0,0   0,0   0,0   0,5   4,1   00:00   ---
15  15,5  21,3   00:00   9,7   00:00   2,8   0,0   0,0   1,4   7,1   00:00   ---
16  10,9  17,4   00:00   4,3   00:00   7,4   0,0   0,0   0,4   3,7   00:00   ---
17  11,6  20,9   00:00   2,3   00:00   6,7   0,0   0,0   0,4   4,4   00:00   ---
18   9,7  14,8   00:00   4,6   00:00   8,6   0,0   0,0   1,3   8,5   00:00   ---
19   9,1  14,6   00:00   3,5   00:00   9,2   0,0   0,6   1,0   6,5   00:00   ---
20  10,9  18,2   00:00   3,7   00:00   7,3   0,0   0,0   0,5   4,4   00:00   ---
21  14,0  16,6   00:00  11,4   00:00   4,3   0,0   5,4   0,3   3,4   00:00   ---
22  13,6  15,1   00:00  12,0   00:00   4,7   0,0   4,8   0,9   5,4   00:00   ---
23  11,1  14,4   00:00   7,9   00:00   7,1   0,0   0,6   0,8   4,8   00:00   ---
24  11,0  15,1   00:00   6,9   00:00   7,3   0,0   2,4   0,9   5,1   00:00   ---
25   9,6  11,8   00:00   7,4   00:00   8,7   0,0  63,3   2,3   8,8   00:00   ---
26   9,4  11,9   00:00   6,8   00:00   1,6   0,6  24,9   1,1   5,1   00:00   OSO
27   9,0  12,4   00:00   5,6   00:00   9,3   0,0  12,6   0,6   4,1   00:00   ---
28   8,4  11,7   00:00   5,1   00:00   9,9   0,0   1,2   0,5   3,7   00:00   ---
29  10,0  12,5   00:00   7,5   00:00   6,2   0,0  30,6   0,6   3,4   00:00   NNV
30  11,4  17,1   00:00   5,6   00:00   6,9   0,0   9,6   0,1   2,0   00:00   ---
31   9,7  15,8   00:00   3,6   00:00   8,6   0,0   4,8   0,2   3,1   00:00   ---
----------------------------------------------------------------------------------
    14,3  29,2    14     2,3    17   162,2   3,8 284,4   0,7   8,8    25       N

Max >=  20,0: 13
Max <=   0,0:  0
Min <=   0,0:  0
Min <= -20,0:  0
Max Rain: 63,3 on day 25
Days of Rain: 17 (>= 0,2 mm)  14 (>= 2,0 mm)  6 (>= 20,0 mm)
Heat Base: 18,3  Cool Base: 18,3  Method: Integration
 
: nu: mätare: diagram: idag och igår: månad och år: rekord: månadsrekord: statistik:
Startsidan Ursviken Örviken

Välkommen till Lundströms väder
Väderstationen som används är en WH1080, Uppdaterad 2024-06-13 16:00:01
skapad av Cumulus v1.9.4 (10992)
Forum
sedan 22 dec 2012